Auburndale, Wisconsin
Current Conditions -  °F | °C
As of 2:54 AM on Saturday 25 Oct 2014 (Local Time) from KMFI Reporting Station
Haze Haze  
Wind Chill: 12°   Ceiling: Unl
Heat Index: 12°   Visibility: 4mi
Dew Point: 11°   Wind: 9mph
Humidity: 93%   Direction: 270°W
Pressure: 29.86"   Gusts: NA
Location:  44.63°N, 90.01°W
Report Text: KMFI 250754Z AUTO 27008KT 4SM BR SCT004 12/11 A2986 RMK AO2 SLP115 T01220111
Loading
Personal Weather Stations






























Interactive Weather Map
Tropical Storm Tracking
New forecast layout! Learn more

10-Day Weather Forecast

Advertisements
Track Severe Weather on mobile